Huvudsida
METAR-TAF:

METAR-TAF

Flygplatser :

Taraz Airport

Taraz, Kazakstan

latitud: 42-51-13N, longitud: 071-18-13E, höjd: 666 m

Aktuellt väderrapport

Denna rapport gjordes för 14 minuter sedan, klockan 13:30 UTC
Vind 17 kt från väst/nordväst
Temperatur 30°C
Fuktighet 13%
Tryck 1004 hPa
Sikt 10 km eller mer
Spridda moln på en höjd av 5000 ft, Cumulonimbus.
Mulet på en höjd av 10000 ft

METAR: UADD 271330Z 29009MPS 9999 SCT050CB OVC100 30/M01 Q1004 R31/0///65 NOSIG RMK QFE696/0928

Tid: 19:44 (13:44 UTC)


TAF: saknas

Aktuella väderrapporter och prognoser från 4000 flygplatser (METAR- och TAF-rapporter).

De tillgängliga stationerna syns som gula och röda prickar på kartan.

För musen över prickarna för att se namnen på stationerna.

Klicka sedan för att få väderrapporter och prognoser.

För att ändra kartan: Klicka på de gröna knapparna med ett svart kors på för att zooma in; den gröna knappen med ett streck på för att zooma ut; eller på de gröna pilarna för angränsande kartor.


METAR-TAF: